createdAt,value
2022-12-23T00:02:14.790Z,97179.38
2022-12-23T00:05:19.495Z,97177.84
2022-12-23T00:08:25.017Z,97183.88
2022-12-23T00:11:29.293Z,97149.88
2022-12-23T00:14:50.335Z,97165.09
2022-12-23T00:17:53.610Z,97154.81
2022-12-23T00:21:04.808Z,97156.63
2022-12-23T00:24:12.873Z,97168.44
2022-12-23T00:27:17.188Z,97161.63
2022-12-23T00:30:21.864Z,97168.38
2022-12-23T00:33:27.194Z,97124.16
2022-12-23T00:36:32.392Z,97114.47
2022-12-23T00:39:55.212Z,97166.63
2022-12-23T00:42:59.552Z,97162.38
2022-12-23T00:46:03.048Z,97152.88
2022-12-23T00:49:26.844Z,97160.94
2022-12-23T00:52:30.184Z,97166.84
2022-12-23T00:55:34.804Z,97155.97
2022-12-23T00:58:38.041Z,97153.66
2022-12-23T01:01:58.802Z,97149.56
2022-12-23T01:05:19.634Z,97141.84
2022-12-23T01:08:22.860Z,97143.91
2022-12-23T01:11:27.831Z,97148.22
2022-12-23T01:14:31.456Z,97148.47
2022-12-23T01:17:34.945Z,97149.78
2022-12-23T01:20:39.115Z,97142.81
2022-12-23T01:23:43.461Z,97140.78
2022-12-23T01:26:48.566Z,97146.03
2022-12-23T01:29:52.165Z,97146.97
2022-12-23T01:32:55.565Z,97126.91
2022-12-23T01:36:02.792Z,97144.31
2022-12-23T01:39:06.178Z,97153.38
2022-12-23T01:42:31.557Z,97145.56
2022-12-23T01:45:35.014Z,97145.19
2022-12-23T01:48:39.534Z,97136.81
2022-12-23T01:51:43.136Z,97140.03
2022-12-23T01:54:47.428Z,97134.38
2022-12-23T01:57:54.707Z,97135.84
2022-12-23T02:01:16.486Z,97126.53
2022-12-23T02:04:23.619Z,97127.91
2022-12-23T02:07:47.905Z,97139.59
2022-12-23T02:11:08.994Z,97126.06
2022-12-23T02:14:48.984Z,97145.56
2022-12-23T02:18:04.562Z,97150.63
2022-12-23T02:21:33.250Z,97140.19
2022-12-23T02:25:13.659Z,97120.75
2022-12-23T02:28:50.329Z,97104.38
2022-12-23T02:32:01.924Z,97113.22
2022-12-23T02:35:13.401Z,97144.50
2022-12-23T02:38:24.825Z,97138.25
2022-12-23T02:41:35.572Z,97139.19
2022-12-23T02:44:46.884Z,97141.59
2022-12-23T02:47:55.906Z,97141.25
2022-12-23T02:51:01.335Z,97128.63
2022-12-23T02:54:08.977Z,97139.78
2022-12-23T02:57:14.854Z,97141.09
2022-12-23T03:00:19.591Z,97134.16
2022-12-23T03:03:25.274Z,97138.09
2022-12-23T03:06:32.933Z,97131.13
2022-12-23T03:09:48.102Z,97135.34
2022-12-23T03:12:59.237Z,97113.16
2022-12-23T03:16:13.570Z,97129.44
2022-12-23T03:19:26.764Z,97101.22
2022-12-23T03:22:36.327Z,97136.41
2022-12-23T03:25:47.647Z,97132.34
2022-12-23T03:28:55.477Z,97139.75
2022-12-23T03:32:04.655Z,97111.53
2022-12-23T03:35:15.274Z,97147.34
2022-12-23T03:38:20.556Z,97142.25
2022-12-23T03:41:30.803Z,97149.28
2022-12-23T03:44:38.488Z,97151.13
2022-12-23T03:47:46.663Z,97161.06
2022-12-23T03:50:56.219Z,97107.06
2022-12-23T03:54:02.674Z,97164.84
2022-12-23T03:57:08.538Z,97155.81
2022-12-23T04:00:13.229Z,97164.50
2022-12-23T04:03:30.531Z,97164.13
2022-12-23T04:06:42.137Z,97157.13
2022-12-23T04:09:48.850Z,97169.50
2022-12-23T04:12:52.928Z,97160.97
2022-12-23T04:15:58.438Z,97161.47
2022-12-23T04:19:01.848Z,97160.03
2022-12-23T04:22:09.750Z,97160.75
2022-12-23T04:25:14.048Z,97134.69
2022-12-23T04:28:18.180Z,97161.78
2022-12-23T04:34:42.159Z,97181.50
2022-12-23T04:37:50.169Z,97175.66
2022-12-23T04:40:54.664Z,97167.25
2022-12-23T04:43:57.890Z,97171.84
2022-12-23T04:47:01.190Z,97184.94
2022-12-23T04:50:07.018Z,97175.84
2022-12-23T04:53:10.353Z,97171.13
2022-12-23T04:56:13.609Z,97195.22
2022-12-23T04:59:17.868Z,97176.66
2022-12-23T05:02:21.169Z,97199.69
2022-12-23T05:05:26.052Z,97189.63
2022-12-23T05:08:30.848Z,97211.16
2022-12-23T05:11:40.139Z,97224.13
2022-12-23T05:14:47.655Z,97225.06
2022-12-23T05:17:51.199Z,97221.16
2022-12-23T05:20:55.945Z,97216.94
2022-12-23T05:24:00.618Z,97224.13
2022-12-23T05:27:04.051Z,97239.38
2022-12-23T05:30:09.219Z,97233.69
2022-12-23T05:33:12.551Z,97220.72
2022-12-23T05:36:19.328Z,97221.72
2022-12-23T05:39:22.622Z,97220.78
2022-12-23T05:42:25.866Z,97230.91
2022-12-23T05:45:29.255Z,97219.06
2022-12-23T05:48:32.729Z,97232.47
2022-12-23T05:51:37.567Z,97230.97
2022-12-23T05:54:41.019Z,97237.72
2022-12-23T05:57:44.297Z,97241.63
2022-12-23T06:00:49.618Z,97254.59
2022-12-23T06:03:53.191Z,97225.69
2022-12-23T06:06:58.048Z,97256.91
2022-12-23T06:10:01.372Z,97259.88
2022-12-23T06:13:04.747Z,97272.97
2022-12-23T06:16:08.453Z,97271.75
2022-12-23T06:19:15.104Z,97270.00
2022-12-23T06:22:21.725Z,97275.25
2022-12-23T06:25:25.216Z,97237.47
2022-12-23T06:28:48.994Z,97288.69
2022-12-23T06:32:13.328Z,97292.75
2022-12-23T06:35:36.487Z,97277.69
2022-12-23T06:39:00.964Z,97290.78
2022-12-23T06:42:04.402Z,97265.72
2022-12-23T06:45:11.484Z,97296.75
2022-12-23T06:48:16.082Z,97312.31
2022-12-23T06:51:19.350Z,97299.09
2022-12-23T06:54:23.979Z,97304.97
2022-12-23T06:57:27.254Z,97259.22
2022-12-23T07:00:30.952Z,97323.03
2022-12-23T07:03:34.300Z,97333.44
2022-12-23T07:06:39.780Z,97333.72
2022-12-23T07:09:44.659Z,97346.63
2022-12-23T07:12:51.002Z,97351.97
2022-12-23T07:15:57.874Z,97368.44
2022-12-23T07:19:01.030Z,97379.53
2022-12-23T07:22:04.755Z,97367.84
2022-12-23T07:25:29.303Z,97368.00
2022-12-23T07:28:52.374Z,97367.66
2022-12-23T07:32:15.608Z,97375.34
2022-12-23T07:35:38.833Z,97382.69
2022-12-23T07:39:01.940Z,97379.88
2022-12-23T07:42:42.818Z,97377.38
2022-12-23T07:45:31.198Z,97389.13
2022-12-23T07:48:34.553Z,97392.16
2022-12-23T07:51:37.905Z,97383.84
2022-12-23T07:54:41.217Z,97382.56
2022-12-23T07:57:48.917Z,97379.47
2022-12-23T08:00:52.513Z,97373.78
2022-12-23T08:03:56.897Z,97376.41
2022-12-23T08:07:00.361Z,97378.19
2022-12-23T08:10:03.671Z,97371.69
2022-12-23T08:13:08.345Z,97365.88
2022-12-23T08:16:13.113Z,97353.66
2022-12-23T08:19:18.572Z,97309.94
2022-12-23T08:22:22.236Z,97348.75
2022-12-23T08:25:25.510Z,97374.22
2022-12-23T08:28:32.324Z,97344.91
2022-12-23T08:31:35.995Z,97378.38
2022-12-23T08:34:39.480Z,97375.88
2022-12-23T08:37:42.979Z,97392.06
2022-12-23T08:40:49.070Z,97425.38
2022-12-23T08:43:54.492Z,97420.91
2022-12-23T08:47:14.239Z,97440.84
2022-12-23T08:50:18.378Z,97437.16
2022-12-23T08:53:21.929Z,97435.38
2022-12-23T08:56:27.006Z,97430.97
2022-12-23T08:59:32.064Z,97403.63
2022-12-23T09:02:35.838Z,97427.00
2022-12-23T09:05:43.159Z,97387.63
2022-12-23T09:08:49.984Z,97402.78
2022-12-23T09:11:53.282Z,97412.56
2022-12-23T09:14:57.967Z,97409.81
2022-12-23T09:18:01.663Z,97414.31
2022-12-23T09:21:06.765Z,97398.22
2022-12-23T09:24:10.153Z,97390.97
2022-12-23T09:27:13.462Z,97402.22
2022-12-23T09:30:20.330Z,97409.06
2022-12-23T09:33:23.678Z,97412.03
2022-12-23T09:36:27.264Z,97389.78
2022-12-23T09:39:31.076Z,97406.78
2022-12-23T09:42:50.840Z,97403.81
2022-12-23T09:46:15.533Z,97334.25
2022-12-23T09:49:20.641Z,97404.22
2022-12-23T09:52:32.247Z,97402.13
2022-12-23T09:55:51.001Z,97405.59
2022-12-23T09:59:04.313Z,97398.28
2022-12-23T10:02:20.247Z,97410.75
2022-12-23T10:05:32.084Z,97409.06
2022-12-23T10:08:39.460Z,97401.19
2022-12-23T10:11:49.675Z,97377.16
2022-12-23T10:14:56.664Z,97415.44
2022-12-23T10:18:04.926Z,97424.56
2022-12-23T10:21:15.885Z,97409.31
2022-12-23T10:24:24.160Z,97389.59
2022-12-23T10:27:32.566Z,97389.47
2022-12-23T10:34:48.817Z,97374.63
2022-12-23T10:38:01.324Z,97302.41
2022-12-23T10:41:13.844Z,97375.78
2022-12-23T10:44:41.432Z,97378.81
2022-12-23T10:47:56.131Z,97375.47
2022-12-23T10:51:06.223Z,97361.31
2022-12-23T10:54:16.462Z,97357.81
2022-12-23T10:57:21.032Z,97380.88
2022-12-23T11:00:26.120Z,97385.06
2022-12-23T11:03:32.702Z,97345.28
2022-12-23T11:06:42.407Z,97366.38
2022-12-23T11:09:49.170Z,97362.03
2022-12-23T11:12:57.171Z,97366.72
2022-12-23T11:16:15.302Z,97353.28
2022-12-23T11:19:20.718Z,97305.72
2022-12-23T11:22:26.445Z,97349.78
2022-12-23T11:25:35.698Z,97353.78
2022-12-23T11:28:49.325Z,97335.69
2022-12-23T11:31:56.675Z,97350.69
2022-12-23T11:35:00.051Z,97353.84
2022-12-23T11:38:15.078Z,97354.19
2022-12-23T11:41:23.530Z,97343.00
2022-12-23T11:44:30.793Z,97343.69
2022-12-23T11:47:38.890Z,97298.13
2022-12-23T11:50:43.446Z,97327.97
2022-12-23T11:53:59.777Z,97318.47
2022-12-23T11:57:06.919Z,97313.03
2022-12-23T12:00:22.461Z,97301.06
2022-12-23T12:03:31.661Z,97301.16
2022-12-23T12:06:36.221Z,97299.00
2022-12-23T12:09:45.986Z,97307.59
2022-12-23T12:12:54.807Z,97256.91
2022-12-23T12:16:09.973Z,97293.31
2022-12-23T12:19:21.840Z,97287.91
2022-12-23T12:22:34.475Z,97280.28
2022-12-23T12:25:44.598Z,97274.78
2022-12-23T12:28:55.056Z,97272.56
2022-12-23T12:32:00.377Z,97267.44
2022-12-23T12:35:14.259Z,97279.22
2022-12-23T12:38:24.234Z,97260.50
2022-12-23T12:41:34.233Z,97263.38
2022-12-23T12:44:44.594Z,97259.22
2022-12-23T12:48:13.030Z,97263.63
2022-12-23T12:51:28.724Z,97251.59
2022-12-23T12:54:40.481Z,97220.63
2022-12-23T12:57:49.949Z,97241.94
2022-12-23T13:01:05.047Z,97239.44
2022-12-23T13:04:29.464Z,97243.16
2022-12-23T13:07:44.718Z,97240.63
2022-12-23T13:10:58.020Z,97246.34
2022-12-23T13:14:11.155Z,97242.47
2022-12-23T13:17:21.878Z,97228.53
2022-12-23T13:20:34.878Z,97229.56
2022-12-23T13:23:45.705Z,97221.06
2022-12-23T13:27:00.588Z,97184.47
2022-12-23T13:30:12.205Z,97202.19
2022-12-23T13:33:25.924Z,97194.44
2022-12-23T13:36:47.390Z,97186.84
2022-12-23T13:39:58.766Z,97177.25
2022-12-23T13:43:07.462Z,97176.66
2022-12-23T13:46:18.623Z,97167.63
2022-12-23T13:49:30.859Z,97169.72
2022-12-23T13:52:49.616Z,97158.41
2022-12-23T13:56:03.001Z,97161.00
2022-12-23T13:59:11.143Z,97156.81
2022-12-23T14:02:44.152Z,97152.66
2022-12-23T14:05:50.640Z,97154.41
2022-12-23T14:08:55.966Z,97157.88
2022-12-23T14:12:12.544Z,97148.81
2022-12-23T14:15:54.560Z,97148.81
2022-12-23T14:19:15.396Z,97145.50
2022-12-23T14:22:37.319Z,97139.59
2022-12-23T14:26:02.468Z,97123.06
2022-12-23T14:29:31.343Z,97120.66
2022-12-23T14:32:43.794Z,97118.41
2022-12-23T14:35:57.394Z,97113.28
2022-12-23T14:39:29.974Z,97111.88
2022-12-23T14:42:40.853Z,97099.38
2022-12-23T14:45:45.095Z,97094.72
2022-12-23T14:49:38.832Z,97098.31
2022-12-23T14:53:01.333Z,97095.56
2022-12-23T14:56:23.461Z,97079.75
2022-12-23T14:59:37.168Z,97079.19
2022-12-23T15:02:42.002Z,97076.94
2022-12-23T15:05:48.119Z,97077.97
2022-12-23T15:08:55.811Z,97064.03
2022-12-23T15:12:01.547Z,97062.13
2022-12-23T15:15:07.075Z,97057.28
2022-12-23T15:18:13.855Z,97072.28
2022-12-23T15:21:19.219Z,97065.44
2022-12-23T15:24:24.027Z,97068.66
2022-12-23T15:27:30.332Z,97056.13
2022-12-23T15:30:37.395Z,97039.09
2022-12-23T15:37:04.993Z,97039.09
2022-12-23T15:40:31.543Z,97046.91
2022-12-23T15:43:58.797Z,97018.91
2022-12-23T15:47:29.214Z,97038.13
2022-12-23T15:50:55.926Z,97032.03
2022-12-23T15:54:24.057Z,97017.63
2022-12-23T15:57:30.635Z,97013.19
2022-12-23T16:00:40.907Z,97011.28
2022-12-23T16:03:52.510Z,97013.75
2022-12-23T16:06:57.365Z,97011.91
2022-12-23T16:10:03.815Z,97010.63
2022-12-23T16:13:18.142Z,96999.50
2022-12-23T16:16:34.659Z,97001.84
2022-12-23T16:19:39.964Z,96999.88
2022-12-23T16:22:45.204Z,96996.75
2022-12-23T16:25:54.228Z,96991.09
2022-12-23T16:29:01.936Z,96980.94
2022-12-23T16:34:39.150Z,96987.97
2022-12-23T16:37:47.540Z,96964.44
2022-12-23T16:40:56.020Z,96983.91
2022-12-23T16:43:59.776Z,96980.28
2022-12-23T16:47:08.051Z,96993.97
2022-12-23T16:50:16.038Z,96984.59
2022-12-23T16:53:20.221Z,96970.78
2022-12-23T16:56:25.443Z,96947.78
2022-12-23T16:59:28.719Z,96969.00
2022-12-23T17:02:34.507Z,96961.31
2022-12-23T17:05:41.815Z,96974.88
2022-12-23T17:08:45.282Z,96961.81
2022-12-23T17:11:53.864Z,96959.91
2022-12-23T17:14:57.252Z,96965.94
2022-12-23T17:18:00.872Z,96960.97
2022-12-23T17:21:05.716Z,96684.41
2022-12-23T17:24:13.321Z,96938.78
2022-12-23T17:27:20.584Z,96953.50
2022-12-23T17:30:26.157Z,96961.78
2022-12-23T17:33:32.566Z,96961.09
2022-12-23T17:36:44.431Z,96970.81
2022-12-23T17:40:17.151Z,96975.34
2022-12-23T17:43:20.390Z,96947.91
2022-12-23T17:46:24.625Z,96976.50
2022-12-23T17:49:28.397Z,96972.75
2022-12-23T17:52:33.060Z,96975.06
2022-12-23T17:55:36.418Z,96971.66
2022-12-23T17:58:43.865Z,96991.31
2022-12-23T18:01:47.230Z,96985.50
2022-12-23T18:04:51.142Z,96998.00
2022-12-23T18:07:59.528Z,96989.47
2022-12-23T18:11:03.097Z,97001.50
2022-12-23T18:14:06.699Z,96995.91
2022-12-23T18:17:15.365Z,97012.00
2022-12-23T18:20:23.637Z,97004.09
2022-12-23T18:23:30.595Z,97019.88
2022-12-23T18:26:33.859Z,97023.75
2022-12-23T18:29:37.077Z,97024.25
2022-12-23T18:32:42.273Z,97025.72
2022-12-23T18:35:47.350Z,97023.22
2022-12-23T18:38:52.960Z,97022.81
2022-12-23T18:41:56.427Z,97022.22
2022-12-23T18:45:00.583Z,97011.84
2022-12-23T18:48:05.942Z,97017.34
2022-12-23T18:51:14.517Z,97010.91
2022-12-23T18:54:21.421Z,97027.59
2022-12-23T18:57:24.830Z,97030.31
2022-12-23T19:00:33.580Z,97048.66
2022-12-23T19:03:36.902Z,97057.69
2022-12-23T19:06:40.205Z,97045.16
2022-12-23T19:09:44.932Z,97052.94
2022-12-23T19:12:51.218Z,97040.47
2022-12-23T19:15:54.574Z,97038.81
2022-12-23T19:18:57.975Z,97056.88
2022-12-23T19:22:01.417Z,97054.22
2022-12-23T19:25:08.498Z,97028.72
2022-12-23T19:28:12.777Z,97047.75
2022-12-23T19:31:18.103Z,97065.00
2022-12-23T19:34:21.533Z,97051.34
2022-12-23T19:37:24.957Z,97057.72
2022-12-23T19:40:29.588Z,97062.78
2022-12-23T19:43:32.916Z,97073.88
2022-12-23T19:46:36.348Z,97084.38
2022-12-23T19:49:39.780Z,97083.63
2022-12-23T19:52:43.223Z,97093.28
2022-12-23T19:55:59.044Z,97097.78
2022-12-23T19:59:03.539Z,97087.50
2022-12-23T20:02:07.621Z,97087.50
2022-12-23T20:05:10.882Z,97078.22
2022-12-23T20:08:14.389Z,97099.00
2022-12-23T20:11:21.327Z,97116.19
2022-12-23T20:14:29.059Z,97123.59
2022-12-23T20:17:35.563Z,97106.25
2022-12-23T20:20:38.840Z,97131.81
2022-12-23T20:23:42.223Z,97127.03
2022-12-23T20:26:47.194Z,97119.75
2022-12-23T20:29:51.166Z,97126.16
2022-12-23T20:32:55.482Z,97130.78
2022-12-23T20:35:58.920Z,97117.69
2022-12-23T20:39:03.589Z,97119.75
2022-12-23T20:42:09.908Z,97127.84
2022-12-23T20:45:13.515Z,97096.22
2022-12-23T20:48:18.280Z,97137.84
2022-12-23T20:51:24.048Z,97137.50
2022-12-23T20:54:33.084Z,97140.06
2022-12-23T20:57:38.731Z,97115.69
2022-12-23T21:00:42.119Z,97125.13
2022-12-23T21:03:47.209Z,97140.97
2022-12-23T21:06:51.660Z,97145.47
2022-12-23T21:09:55.358Z,97136.00
2022-12-23T21:13:01.844Z,97158.41
2022-12-23T21:16:07.082Z,97159.44
2022-12-23T21:19:15.785Z,97156.81
2022-12-23T21:22:20.139Z,97172.03
2022-12-23T21:25:23.371Z,97199.44
2022-12-23T21:28:28.000Z,97216.25
2022-12-23T21:31:32.649Z,97198.09
2022-12-23T21:34:37.403Z,97197.47
2022-12-23T21:37:40.858Z,97204.63
2022-12-23T21:40:44.149Z,97201.84
2022-12-23T21:43:49.392Z,97211.25
2022-12-23T21:46:52.934Z,97215.16
2022-12-23T21:49:56.156Z,97226.50
2022-12-23T21:52:59.440Z,97233.38
2022-12-23T21:56:04.200Z,97227.00
2022-12-23T21:59:12.631Z,97242.19
2022-12-23T22:02:17.084Z,97242.34
2022-12-23T22:05:21.722Z,97246.41
2022-12-23T22:08:27.942Z,97251.28
2022-12-23T22:11:33.347Z,97240.56
2022-12-23T22:14:39.434Z,97261.28
2022-12-23T22:17:42.835Z,97251.03
2022-12-23T22:20:46.618Z,97271.75
2022-12-23T22:23:51.713Z,97282.28
2022-12-23T22:26:55.427Z,97280.06
2022-12-23T22:30:00.217Z,97279.13
2022-12-23T22:34:38.917Z,97291.31
2022-12-23T22:37:42.201Z,97293.47
2022-12-23T22:40:49.541Z,97301.16
2022-12-23T22:43:52.780Z,97309.28
2022-12-23T22:46:56.668Z,97325.47
2022-12-23T22:50:01.359Z,97327.81
2022-12-23T22:53:04.955Z,97345.34
2022-12-23T22:56:09.387Z,97327.47
2022-12-23T22:59:21.035Z,97297.13
2022-12-23T23:02:24.729Z,97349.09
2022-12-23T23:05:31.301Z,97353.75
2022-12-23T23:08:35.964Z,97364.84
2022-12-23T23:11:39.310Z,97363.94
2022-12-23T23:14:54.948Z,97354.59
2022-12-23T23:17:58.390Z,97351.00
2022-12-23T23:21:03.125Z,97347.78
2022-12-23T23:24:07.531Z,97342.69
2022-12-23T23:27:12.161Z,97312.91
2022-12-23T23:30:15.928Z,97350.97
2022-12-23T23:33:19.824Z,97355.88
2022-12-23T23:36:24.541Z,97359.63
2022-12-23T23:39:27.781Z,97359.50
2022-12-23T23:42:30.980Z,97373.13
2022-12-23T23:45:34.602Z,97382.13
2022-12-23T23:48:37.823Z,97329.59
2022-12-23T23:51:42.836Z,97382.19
2022-12-23T23:54:46.049Z,97385.81
2022-12-23T23:57:52.181Z,97388.97
